createdAt,value
2022-08-09T00:01:01.015Z,40.10
2022-08-09T00:04:06.166Z,40.20
2022-08-09T00:06:22.744Z,40.20
2022-08-09T00:08:52.355Z,40.30
2022-08-09T00:11:56.882Z,40.30
2022-08-09T00:14:17.399Z,40.20
2022-08-09T00:16:51.871Z,40.20
2022-08-09T00:19:21.515Z,40.20
2022-08-09T00:21:56.108Z,40.20
2022-08-09T00:24:27.315Z,40.30
2022-08-09T00:26:57.377Z,40.20
2022-08-09T00:29:39.847Z,40.20
2022-08-09T00:32:26.793Z,40.20
2022-08-09T00:35:04.330Z,40.20
2022-08-09T00:37:32.742Z,40.30
2022-08-09T00:40:13.263Z,40.30
2022-08-09T00:44:14.815Z,40.20
2022-08-09T00:45:35.179Z,40.20
2022-08-09T00:48:06.647Z,40.30
2022-08-09T00:50:37.849Z,40.30
2022-08-09T00:53:10.151Z,40.30
2022-08-09T00:56:04.693Z,40.20
2022-08-09T00:58:30.407Z,40.20
2022-08-09T01:00:59.882Z,40.30
2022-08-09T01:03:46.410Z,40.20
2022-08-09T01:06:25.516Z,40.20
2022-08-09T01:09:13.034Z,40.20
2022-08-09T01:11:53.152Z,40.20
2022-08-09T01:14:30.387Z,40.20
2022-08-09T01:17:05.430Z,40.20
2022-08-09T01:20:01.592Z,40.20
2022-08-09T01:24:01.012Z,40.20
2022-08-09T01:26:02.922Z,40.20
2022-08-09T01:28:34.161Z,40.20
2022-08-09T01:31:06.338Z,40.20
2022-08-09T01:33:39.545Z,40.20
2022-08-09T01:36:13.636Z,40.30
2022-08-09T01:38:46.649Z,40.30
2022-08-09T01:41:17.863Z,40.20
2022-08-09T01:43:52.525Z,40.20
2022-08-09T01:46:26.338Z,40.20
2022-08-09T01:49:00.107Z,40.10
2022-08-09T01:51:32.131Z,40.20
2022-08-09T01:54:04.329Z,40.20
2022-08-09T01:56:36.519Z,40.20
2022-08-09T01:59:10.792Z,40.20
2022-08-09T02:01:59.031Z,41.40
2022-08-09T02:04:30.851Z,40.20
2022-08-09T02:07:18.046Z,40.10
2022-08-09T02:10:04.142Z,40.20
2022-08-09T02:12:35.114Z,40.20
2022-08-09T02:15:07.653Z,40.20
2022-08-09T02:18:00.153Z,40.10
2022-08-09T02:20:32.966Z,41.40
2022-08-09T02:23:09.022Z,40.20
2022-08-09T02:25:42.752Z,40.10
2022-08-09T02:28:21.356Z,40.20
2022-08-09T02:30:59.764Z,40.10
2022-08-09T02:33:38.384Z,40.20
2022-08-09T02:36:27.997Z,40.10
2022-08-09T02:38:59.532Z,40.20
2022-08-09T02:41:34.021Z,40.10
2022-08-09T02:44:13.752Z,40.20
2022-08-09T02:47:04.230Z,40.10
2022-08-09T02:49:38.458Z,40.10
2022-08-09T02:52:12.881Z,40.10
2022-08-09T02:54:54.016Z,40.10
2022-08-09T02:57:25.023Z,40.10
2022-08-09T03:00:20.591Z,40.10
2022-08-09T03:03:00.022Z,40.10
2022-08-09T03:05:34.704Z,40.10
2022-08-09T03:08:05.683Z,40.10
2022-08-09T03:10:35.718Z,40.10
2022-08-09T03:13:08.529Z,40.20
2022-08-09T03:16:04.313Z,40.10
2022-08-09T03:18:30.540Z,40.20
2022-08-09T03:21:01.970Z,40.10
2022-08-09T03:23:30.990Z,40.10
2022-08-09T03:26:04.758Z,40.10
2022-08-09T03:28:35.874Z,40.10
2022-08-09T03:31:21.010Z,40.10
2022-08-09T03:33:54.263Z,40.00
2022-08-09T03:36:27.343Z,40.00
2022-08-09T03:38:57.935Z,40.00
2022-08-09T03:41:42.969Z,40.00
2022-08-09T03:44:15.753Z,40.00
2022-08-09T03:46:44.891Z,40.00
2022-08-09T03:49:19.347Z,41.30
2022-08-09T03:52:00.341Z,40.00
2022-08-09T03:54:34.798Z,40.00
2022-08-09T03:57:18.067Z,40.00
2022-08-09T03:59:53.884Z,40.00
2022-08-09T04:02:30.019Z,40.00
2022-08-09T04:05:06.440Z,40.10
2022-08-09T04:07:53.556Z,40.10
2022-08-09T04:10:28.891Z,40.00
2022-08-09T04:13:01.209Z,40.00
2022-08-09T04:15:52.487Z,40.00
2022-08-09T04:18:21.995Z,39.90
2022-08-09T04:20:52.137Z,39.90
2022-08-09T04:23:24.509Z,40.00
2022-08-09T04:25:54.395Z,39.90
2022-08-09T04:28:33.941Z,40.00
2022-08-09T04:31:10.241Z,39.90
2022-08-09T04:33:47.180Z,39.90
2022-08-09T04:36:25.955Z,39.90
2022-08-09T04:38:54.943Z,39.90
2022-08-09T04:41:24.420Z,39.90
2022-08-09T04:44:07.020Z,39.90
2022-08-09T04:46:58.257Z,40.00
2022-08-09T04:49:52.235Z,40.00
2022-08-09T04:52:27.126Z,40.00
2022-08-09T04:54:56.583Z,39.90
2022-08-09T04:57:25.361Z,40.40
2022-08-09T04:59:55.367Z,40.70
2022-08-09T05:02:24.625Z,40.70
2022-08-09T05:04:56.124Z,40.60
2022-08-09T05:07:29.282Z,40.70
2022-08-09T05:10:01.871Z,40.50
2022-08-09T05:12:33.094Z,41.70
2022-08-09T05:15:03.971Z,40.60
2022-08-09T05:18:39.191Z,40.70
2022-08-09T05:20:30.500Z,40.60
2022-08-09T05:23:55.528Z,40.80
2022-08-09T05:25:51.027Z,40.70
2022-08-09T05:28:20.590Z,40.80
2022-08-09T05:30:51.558Z,40.80
2022-08-09T05:33:26.314Z,40.80
2022-08-09T05:36:01.353Z,40.80
2022-08-09T05:38:31.202Z,40.90
2022-08-09T05:41:00.220Z,40.80
2022-08-09T05:43:29.130Z,40.90
2022-08-09T05:46:00.901Z,40.90
2022-08-09T05:48:33.309Z,41.00
2022-08-09T05:51:43.123Z,41.00
2022-08-09T05:53:57.289Z,40.90
2022-08-09T05:56:27.977Z,40.90
2022-08-09T05:58:58.475Z,41.20
2022-08-09T06:01:34.215Z,41.00
2022-08-09T06:04:12.305Z,41.00
2022-08-09T06:06:46.844Z,41.10
2022-08-09T06:09:40.459Z,41.30
2022-08-09T06:12:09.234Z,41.30
2022-08-09T06:14:37.625Z,41.40
2022-08-09T06:17:10.146Z,41.50
2022-08-09T06:19:40.375Z,41.60
2022-08-09T06:22:15.066Z,41.80
2022-08-09T06:24:45.639Z,41.80
2022-08-09T06:27:17.390Z,41.90
2022-08-09T06:29:48.000Z,41.80
2022-08-09T06:32:58.889Z,41.90
2022-08-09T06:35:15.766Z,42.00
2022-08-09T06:37:53.364Z,42.10
2022-08-09T06:40:34.990Z,42.20
2022-08-09T06:43:03.703Z,42.40
2022-08-09T06:46:07.745Z,42.50
2022-08-09T06:48:30.730Z,42.40
2022-08-09T06:51:00.464Z,42.20
2022-08-09T06:53:38.394Z,42.10
2022-08-09T06:56:09.765Z,41.80
2022-08-09T07:00:52.031Z,41.60
2022-08-09T07:01:53.563Z,41.50
2022-08-09T07:04:19.788Z,41.60
2022-08-09T07:06:53.317Z,41.30
2022-08-09T07:09:54.832Z,41.20
2022-08-09T07:12:18.774Z,41.30
2022-08-09T07:14:51.020Z,41.30
2022-08-09T07:17:21.641Z,41.20
2022-08-09T07:19:50.557Z,41.60
2022-08-09T07:22:39.579Z,42.10
2022-08-09T07:25:12.336Z,42.10
2022-08-09T07:27:53.127Z,42.20
2022-08-09T07:30:24.659Z,42.20
2022-08-09T07:32:54.864Z,42.10
2022-08-09T07:35:23.549Z,42.10
2022-08-09T07:37:59.527Z,42.10
2022-08-09T07:40:37.388Z,42.20
2022-08-09T07:43:18.926Z,42.10
2022-08-09T07:45:47.362Z,42.10
2022-08-09T07:48:28.763Z,42.10
2022-08-09T07:51:09.507Z,42.00
2022-08-09T07:54:05.309Z,42.00
2022-08-09T07:56:44.708Z,42.00
2022-08-09T07:59:25.479Z,41.90
2022-08-09T08:02:03.569Z,41.90
2022-08-09T08:04:34.233Z,41.90
2022-08-09T08:07:15.598Z,41.90
2022-08-09T08:09:55.258Z,41.90
2022-08-09T08:12:43.647Z,41.90
2022-08-09T08:15:17.594Z,41.90
2022-08-09T08:17:54.741Z,41.80
2022-08-09T08:20:28.780Z,41.80
2022-08-09T08:23:01.743Z,41.80
2022-08-09T08:25:43.867Z,41.80
2022-08-09T08:28:15.007Z,41.80
2022-08-09T08:30:47.525Z,41.80
2022-08-09T08:33:23.754Z,41.80
2022-08-09T08:36:00.292Z,41.80
2022-08-09T08:38:29.968Z,41.80
2022-08-09T08:41:01.812Z,42.00
2022-08-09T08:43:36.132Z,43.00
2022-08-09T08:46:32.429Z,41.80
2022-08-09T08:49:00.702Z,41.90
2022-08-09T08:51:41.680Z,41.80
2022-08-09T08:54:20.310Z,41.90
2022-08-09T08:56:53.321Z,41.80
2022-08-09T08:59:22.143Z,41.80
2022-08-09T09:01:59.676Z,41.90
2022-08-09T09:04:31.265Z,41.90
2022-08-09T09:07:10.333Z,41.80
2022-08-09T09:10:01.489Z,41.90
2022-08-09T09:12:35.513Z,41.90
2022-08-09T09:15:06.585Z,41.80
2022-08-09T09:17:49.562Z,41.80
2022-08-09T09:20:21.817Z,41.80
2022-08-09T09:22:55.420Z,41.80
2022-08-09T09:26:02.306Z,41.80
2022-08-09T09:29:02.520Z,41.80
2022-08-09T09:32:06.921Z,41.80
2022-08-09T09:34:18.409Z,41.80
2022-08-09T09:36:53.934Z,41.90
2022-08-09T09:39:25.640Z,41.80
2022-08-09T09:42:24.738Z,42.10
2022-08-09T09:44:58.101Z,41.90
2022-08-09T09:47:28.364Z,42.00
2022-08-09T09:50:14.615Z,42.00
2022-08-09T09:52:54.771Z,42.20
2022-08-09T09:55:31.964Z,41.80
2022-08-09T09:58:19.048Z,41.80
2022-08-09T10:00:52.551Z,42.10
2022-08-09T10:03:40.809Z,42.10
2022-08-09T10:06:12.853Z,42.00
2022-08-09T10:08:43.253Z,42.10
2022-08-09T10:12:00.345Z,42.10
2022-08-09T10:14:33.875Z,42.00
2022-08-09T10:17:39.150Z,42.10
2022-08-09T10:20:00.650Z,42.10
2022-08-09T10:22:40.780Z,42.10
2022-08-09T10:25:14.214Z,42.10
2022-08-09T10:27:56.824Z,42.10
2022-08-09T10:34:05.235Z,42.10
2022-08-09T10:36:11.470Z,42.00
2022-08-09T10:38:56.981Z,43.30
2022-08-09T10:41:28.819Z,42.10
2022-08-09T10:43:59.345Z,42.10
2022-08-09T10:48:12.620Z,42.10
2022-08-09T10:50:09.948Z,42.10
2022-08-09T10:53:10.262Z,42.00
2022-08-09T10:55:57.812Z,42.10
2022-08-09T10:58:34.769Z,42.00
2022-08-09T11:03:02.408Z,42.10
2022-08-09T11:04:27.796Z,42.10
2022-08-09T11:07:57.296Z,42.10
2022-08-09T11:11:00.842Z,42.00
2022-08-09T11:13:49.917Z,42.10
2022-08-09T11:16:37.727Z,42.00
2022-08-09T11:19:11.248Z,42.00
2022-08-09T11:22:18.509Z,42.10
2022-08-09T11:25:08.233Z,42.10
2022-08-09T11:28:04.333Z,42.00
2022-08-09T11:30:38.484Z,42.10
2022-08-09T11:33:15.944Z,42.00
2022-08-09T11:35:49.882Z,42.00
2022-08-09T11:38:32.676Z,42.00
2022-08-09T11:41:38.350Z,42.10
2022-08-09T11:44:10.476Z,42.10
2022-08-09T11:47:03.200Z,42.10
2022-08-09T11:50:55.586Z,42.10
2022-08-09T11:53:58.109Z,42.00
2022-08-09T11:56:42.499Z,42.10
2022-08-09T11:59:30.669Z,42.10
2022-08-09T12:02:17.643Z,42.10
2022-08-09T12:04:58.781Z,42.00
2022-08-09T12:07:41.363Z,42.10
2022-08-09T12:10:14.437Z,42.00
2022-08-09T12:13:03.673Z,42.00
2022-08-09T12:15:51.949Z,42.10
2022-08-09T12:18:30.121Z,42.10
2022-08-09T12:21:03.440Z,42.10
2022-08-09T12:24:06.515Z,42.10
2022-08-09T12:26:44.780Z,42.00
2022-08-09T12:29:52.317Z,42.00
2022-08-09T12:32:27.332Z,41.90
2022-08-09T12:35:02.982Z,41.80
2022-08-09T12:37:43.967Z,42.00
2022-08-09T12:40:18.964Z,42.00
2022-08-09T12:42:50.654Z,42.10
2022-08-09T12:45:34.650Z,42.00
2022-08-09T12:48:19.885Z,42.00
2022-08-09T12:50:57.273Z,42.00
2022-08-09T12:53:36.657Z,43.20
2022-08-09T12:56:43.548Z,41.90
2022-08-09T12:59:10.198Z,42.00
2022-08-09T13:01:46.838Z,41.90
2022-08-09T13:04:36.319Z,41.90
2022-08-09T13:07:14.366Z,42.00
2022-08-09T13:09:56.043Z,42.00
2022-08-09T13:12:30.853Z,41.80
2022-08-09T13:15:08.295Z,41.60
2022-08-09T13:18:02.683Z,41.60
2022-08-09T13:21:03.910Z,41.60
2022-08-09T13:24:42.125Z,42.00
2022-08-09T13:26:37.224Z,40.70
2022-08-09T13:29:07.790Z,40.20
2022-08-09T13:32:20.042Z,38.10
2022-08-09T13:34:46.088Z,37.60
2022-08-09T13:37:50.800Z,36.70
2022-08-09T13:41:53.917Z,37.10
2022-08-09T13:42:54.221Z,37.20
2022-08-09T13:45:32.220Z,36.20
2022-08-09T13:48:11.428Z,36.40
2022-08-09T13:50:43.645Z,36.60
2022-08-09T13:53:16.144Z,36.50
2022-08-09T13:55:45.001Z,36.70
2022-08-09T13:58:16.891Z,36.00
2022-08-09T14:00:50.603Z,36.40
2022-08-09T14:04:05.343Z,36.50
2022-08-09T14:06:19.517Z,36.40
2022-08-09T14:08:55.993Z,35.90
2022-08-09T14:11:24.343Z,36.00
2022-08-09T14:14:22.486Z,35.20
2022-08-09T14:16:42.265Z,34.60
2022-08-09T14:19:11.048Z,34.80
2022-08-09T14:21:39.419Z,34.60
2022-08-09T14:24:22.333Z,34.50
2022-08-09T14:27:00.210Z,34.80
2022-08-09T14:30:34.561Z,34.70
2022-08-09T14:32:19.698Z,34.40
2022-08-09T14:34:57.299Z,34.20
2022-08-09T14:37:28.110Z,33.70
2022-08-09T14:39:58.642Z,33.50
2022-08-09T14:42:30.387Z,33.90
2022-08-09T14:46:40.066Z,33.50
2022-08-09T14:47:58.825Z,33.40
2022-08-09T14:50:30.439Z,33.30
2022-08-09T14:52:59.739Z,33.00
2022-08-09T14:55:32.303Z,33.30
2022-08-09T14:58:02.963Z,33.50
2022-08-09T15:00:33.300Z,33.60
2022-08-09T15:03:03.898Z,33.70
2022-08-09T15:05:33.317Z,33.50
2022-08-09T15:08:01.929Z,33.20
2022-08-09T15:10:32.761Z,32.90
2022-08-09T15:13:03.191Z,33.00
2022-08-09T15:15:34.519Z,32.70
2022-08-09T15:18:12.306Z,32.90
2022-08-09T15:21:55.866Z,33.10
2022-08-09T15:24:02.370Z,32.70
2022-08-09T15:26:30.801Z,32.70
2022-08-09T15:29:04.133Z,32.70
2022-08-09T15:31:41.659Z,34.00
2022-08-09T15:34:32.096Z,32.70
2022-08-09T15:37:04.053Z,32.80
2022-08-09T15:39:49.919Z,32.60
2022-08-09T15:42:24.077Z,32.50
2022-08-09T15:44:52.598Z,32.70
2022-08-09T15:47:21.738Z,32.70
2022-08-09T15:50:04.496Z,33.00
2022-08-09T15:52:35.463Z,32.70
2022-08-09T15:55:04.607Z,32.40
2022-08-09T15:57:44.563Z,31.90
2022-08-09T16:00:25.512Z,32.10
2022-08-09T16:02:56.891Z,32.30
2022-08-09T16:05:47.022Z,32.80
2022-08-09T16:08:30.658Z,33.00
2022-08-09T16:11:01.440Z,32.80
2022-08-09T16:14:05.457Z,32.90
2022-08-09T16:16:28.161Z,32.60
2022-08-09T16:18:56.969Z,32.10
2022-08-09T16:21:26.406Z,33.00
2022-08-09T16:24:02.530Z,34.20
2022-08-09T16:26:34.966Z,33.20
2022-08-09T16:29:11.110Z,34.80
2022-08-09T16:32:11.121Z,34.70
2022-08-09T16:34:54.529Z,34.10
2022-08-09T16:37:20.271Z,33.30
2022-08-09T16:40:11.135Z,32.70
2022-08-09T16:42:45.292Z,33.10
2022-08-09T16:45:19.650Z,33.20
2022-08-09T16:48:39.725Z,33.20
2022-08-09T16:50:38.722Z,33.40
2022-08-09T16:53:08.759Z,33.50
2022-08-09T16:55:58.638Z,33.90
2022-08-09T16:58:26.270Z,34.20
2022-08-09T17:00:57.139Z,34.20
2022-08-09T17:03:25.642Z,34.20
2022-08-09T17:06:08.775Z,34.30
2022-08-09T17:09:01.715Z,34.40
2022-08-09T17:11:40.292Z,34.70
2022-08-09T17:14:25.978Z,34.70
2022-08-09T17:17:03.200Z,34.80
2022-08-09T17:20:04.915Z,34.80
2022-08-09T17:22:29.057Z,34.90
2022-08-09T17:25:02.644Z,34.90
2022-08-09T17:27:32.868Z,35.10
2022-08-09T17:30:04.888Z,35.30
2022-08-09T17:32:37.478Z,35.40
2022-08-09T17:35:12.111Z,35.00
2022-08-09T17:38:10.131Z,34.80
2022-08-09T17:40:31.883Z,34.80
2022-08-09T17:43:10.833Z,34.80
2022-08-09T17:46:05.955Z,35.00
2022-08-09T17:48:39.738Z,35.30
2022-08-09T17:51:17.624Z,34.50
2022-08-09T17:53:52.915Z,34.70
2022-08-09T17:56:27.529Z,34.80
2022-08-09T17:59:03.453Z,34.80
2022-08-09T18:01:58.033Z,35.00
2022-08-09T18:04:28.621Z,35.10
2022-08-09T18:06:57.543Z,35.30
2022-08-09T18:09:40.918Z,35.40
2022-08-09T18:12:14.951Z,35.40
2022-08-09T18:14:53.415Z,35.60
2022-08-09T18:18:01.129Z,35.70
2022-08-09T18:20:55.891Z,35.70
2022-08-09T18:23:07.169Z,35.80
2022-08-09T18:25:50.809Z,35.80
2022-08-09T18:30:38.746Z,35.80
2022-08-09T18:31:24.724Z,35.90
2022-08-09T18:34:00.800Z,36.00
2022-08-09T18:36:32.481Z,36.00
2022-08-09T18:39:03.480Z,36.00
2022-08-09T18:41:34.204Z,35.90
2022-08-09T18:44:13.133Z,36.10
2022-08-09T18:46:46.425Z,36.00
2022-08-09T18:49:20.126Z,36.10
2022-08-09T18:51:55.329Z,36.10
2022-08-09T18:54:28.577Z,35.90
2022-08-09T18:57:06.029Z,35.90
2022-08-09T18:59:37.657Z,36.00
2022-08-09T19:02:18.646Z,36.00
2022-08-09T19:05:04.489Z,35.90
2022-08-09T19:07:38.339Z,35.90
2022-08-09T19:10:14.219Z,37.20
2022-08-09T19:12:51.453Z,35.90
2022-08-09T19:15:30.408Z,35.70
2022-08-09T19:17:59.179Z,35.80
2022-08-09T19:20:34.414Z,35.90
2022-08-09T19:23:16.588Z,35.90
2022-08-09T19:26:02.261Z,36.10
2022-08-09T19:28:38.094Z,36.10
2022-08-09T19:31:07.597Z,36.20
2022-08-09T19:33:36.923Z,36.20
2022-08-09T19:36:07.193Z,36.00
2022-08-09T19:38:43.391Z,36.10
2022-08-09T19:41:32.734Z,36.20
2022-08-09T19:44:04.359Z,36.10
2022-08-09T19:46:35.185Z,36.10
2022-08-09T19:50:07.061Z,36.20
2022-08-09T19:51:55.750Z,36.20
2022-08-09T19:54:27.241Z,36.10
2022-08-09T19:56:57.096Z,36.20
2022-08-09T19:59:59.595Z,36.20
2022-08-09T20:04:08.275Z,36.20
2022-08-09T20:05:11.759Z,36.30
2022-08-09T20:07:58.647Z,36.40
2022-08-09T20:10:34.643Z,36.40
2022-08-09T20:13:05.008Z,36.40
2022-08-09T20:16:37.575Z,36.40
2022-08-09T20:18:27.790Z,36.40
2022-08-09T20:20:57.424Z,36.30
2022-08-09T20:23:39.742Z,36.20
2022-08-09T20:26:13.220Z,36.30
2022-08-09T20:28:48.700Z,36.40
2022-08-09T20:31:18.385Z,36.50
2022-08-09T20:33:58.583Z,36.40
2022-08-09T20:36:30.717Z,36.50
2022-08-09T20:39:27.996Z,36.50
2022-08-09T20:41:49.945Z,36.50
2022-08-09T20:44:26.526Z,36.50
2022-08-09T20:46:55.359Z,36.60
2022-08-09T20:49:27.531Z,36.60
2022-08-09T20:51:57.724Z,36.70
2022-08-09T20:54:29.129Z,38.00
2022-08-09T20:56:59.748Z,36.70
2022-08-09T21:00:20.605Z,36.80
2022-08-09T21:02:18.681Z,36.80
2022-08-09T21:05:56.696Z,36.80
2022-08-09T21:07:38.752Z,36.70
2022-08-09T21:10:12.032Z,36.70
2022-08-09T21:15:34.759Z,36.80
2022-08-09T21:18:20.822Z,36.90
2022-08-09T21:20:54.442Z,36.90
2022-08-09T21:23:47.136Z,36.90
2022-08-09T21:26:11.766Z,37.00
2022-08-09T21:28:51.871Z,37.00
2022-08-09T21:31:24.077Z,37.10
2022-08-09T21:34:12.500Z,37.10
2022-08-09T21:36:53.286Z,37.00
2022-08-09T21:39:28.163Z,37.00
2022-08-09T21:42:10.997Z,37.10
2022-08-09T21:44:42.623Z,37.20
2022-08-09T21:47:14.163Z,37.30
2022-08-09T21:49:46.704Z,37.20
2022-08-09T21:52:20.257Z,37.10
2022-08-09T21:54:59.428Z,37.20
2022-08-09T21:57:38.250Z,37.20
2022-08-09T22:00:26.833Z,37.30
2022-08-09T22:03:04.464Z,37.20
2022-08-09T22:05:37.604Z,37.20
2022-08-09T22:08:13.667Z,37.30
2022-08-09T22:11:49.671Z,37.30
2022-08-09T22:13:34.691Z,37.50
2022-08-09T22:16:07.550Z,37.40
2022-08-09T22:18:38.038Z,37.40
2022-08-09T22:21:09.746Z,37.50
2022-08-09T22:23:59.048Z,37.50
2022-08-09T22:26:35.435Z,38.60
2022-08-09T22:29:09.216Z,37.50
2022-08-09T22:31:50.286Z,37.50
2022-08-09T22:34:26.392Z,37.50
2022-08-09T22:36:55.388Z,37.50
2022-08-09T22:39:55.628Z,37.60
2022-08-09T22:42:21.131Z,37.50
2022-08-09T22:48:04.653Z,37.70
2022-08-09T22:48:15.098Z,37.70
2022-08-09T22:50:30.678Z,37.70
2022-08-09T22:52:59.353Z,37.70
2022-08-09T22:56:06.428Z,37.70
2022-08-09T22:58:32.207Z,37.70
2022-08-09T23:01:03.168Z,37.70
2022-08-09T23:04:03.695Z,37.80
2022-08-09T23:06:32.664Z,37.80
2022-08-09T23:09:05.076Z,37.80
2022-08-09T23:11:33.601Z,37.80
2022-08-09T23:14:03.147Z,37.80
2022-08-09T23:16:32.423Z,37.80
2022-08-09T23:19:02.444Z,37.80
2022-08-09T23:21:34.353Z,38.00
2022-08-09T23:24:07.344Z,38.00
2022-08-09T23:26:36.704Z,37.90
2022-08-09T23:29:05.431Z,38.00
2022-08-09T23:31:34.441Z,38.10
2022-08-09T23:34:04.493Z,38.00
2022-08-09T23:36:33.834Z,38.00
2022-08-09T23:39:02.295Z,38.30
2022-08-09T23:41:31.018Z,38.00
2022-08-09T23:44:00.973Z,38.00
2022-08-09T23:46:30.284Z,38.00
2022-08-09T23:48:58.834Z,38.00
2022-08-09T23:51:29.580Z,38.10
2022-08-09T23:53:59.869Z,38.10
2022-08-09T23:56:52.540Z,38.10
2022-08-09T23:59:20.687Z,38.30
